createdAt,value
2019-02-25T00:00:55.710Z,2.71
2019-02-25T00:03:25.184Z,2.72
2019-02-25T00:05:54.631Z,2.77
2019-02-25T00:08:24.128Z,2.75
2019-02-25T00:10:53.598Z,2.72
2019-02-25T00:13:23.092Z,2.66
2019-02-25T00:15:52.518Z,2.48
2019-02-25T00:18:21.973Z,2.65
2019-02-25T00:20:51.425Z,2.41
2019-02-25T00:23:20.977Z,2.46
2019-02-25T00:25:50.432Z,2.53
2019-02-25T00:28:19.921Z,2.50
2019-02-25T00:30:49.369Z,2.51
2019-02-25T00:33:18.831Z,2.56
2019-02-25T00:35:48.353Z,2.58
2019-02-25T00:38:17.834Z,2.56
2019-02-25T00:40:47.320Z,2.33
2019-02-25T00:43:16.840Z,2.34
2019-02-25T00:45:46.299Z,2.18
2019-02-25T00:48:15.793Z,2.06
2019-02-25T00:50:45.264Z,2.02
2019-02-25T00:53:14.755Z,2.15
2019-02-25T00:55:44.225Z,2.05
2019-02-25T00:58:13.796Z,2.08
2019-02-25T01:00:43.253Z,2.08
2019-02-25T01:03:12.724Z,2.12
2019-02-25T01:05:42.206Z,2.11
2019-02-25T01:08:11.662Z,1.98
2019-02-25T01:10:41.141Z,2.09
2019-02-25T01:13:10.600Z,2.27
2019-02-25T01:15:40.126Z,2.28
2019-02-25T01:18:09.628Z,2.37
2019-02-25T01:20:39.134Z,2.39
2019-02-25T01:23:08.611Z,2.33
2019-02-25T01:25:38.091Z,2.40
2019-02-25T01:28:07.570Z,2.46
2019-02-25T01:30:37.044Z,2.39
2019-02-25T01:33:06.498Z,2.38
2019-02-25T01:35:35.975Z,2.42
2019-02-25T01:38:05.567Z,2.45
2019-02-25T01:40:35.038Z,2.28
2019-02-25T01:43:04.525Z,2.36
2019-02-25T01:45:33.979Z,2.39
2019-02-25T01:48:03.483Z,2.48
2019-02-25T01:50:32.945Z,2.51
2019-02-25T01:53:02.394Z,2.61
2019-02-25T01:55:31.891Z,2.59
2019-02-25T01:58:01.355Z,2.57
2019-02-25T02:00:30.887Z,2.56
2019-02-25T02:03:00.345Z,2.53
2019-02-25T02:05:29.931Z,2.38
2019-02-25T02:07:59.420Z,2.23
2019-02-25T02:10:28.911Z,2.33
2019-02-25T02:12:58.356Z,2.39
2019-02-25T02:15:27.949Z,2.32
2019-02-25T02:17:57.404Z,2.34
2019-02-25T02:20:26.961Z,2.29
2019-02-25T02:22:56.421Z,2.18
2019-02-25T02:25:25.909Z,2.18
2019-02-25T02:27:55.367Z,2.05
2019-02-25T02:30:24.824Z,2.12
2019-02-25T02:32:54.321Z,1.94
2019-02-25T02:35:23.776Z,1.97
2019-02-25T02:37:53.267Z,2.00
2019-02-25T02:40:22.755Z,2.15
2019-02-25T02:42:54.138Z,2.06
2019-02-25T02:45:30.006Z,2.17
2019-02-25T02:48:15.514Z,2.05
2019-02-25T02:50:44.986Z,2.01
2019-02-25T02:53:14.448Z,1.98
2019-02-25T02:55:43.927Z,1.86
2019-02-25T02:58:13.386Z,2.03
2019-02-25T03:00:42.905Z,2.03
2019-02-25T03:03:12.349Z,2.11
2019-02-25T03:05:42.019Z,2.07
2019-02-25T03:08:11.511Z,2.09
2019-02-25T03:10:40.976Z,2.07
2019-02-25T03:13:10.576Z,1.94
2019-02-25T03:15:40.051Z,1.80
2019-02-25T03:18:09.516Z,1.84
2019-02-25T03:20:39.007Z,1.88
2019-02-25T03:23:08.479Z,1.73
2019-02-25T03:25:37.975Z,1.80
2019-02-25T03:28:07.442Z,1.82
2019-02-25T03:30:36.905Z,1.76
2019-02-25T03:33:06.399Z,1.85
2019-02-25T03:35:35.887Z,1.73
2019-02-25T03:38:05.753Z,1.77
2019-02-25T03:40:35.210Z,1.78
2019-02-25T03:43:04.670Z,1.76
2019-02-25T03:45:34.143Z,1.65
2019-02-25T03:48:03.713Z,1.76
2019-02-25T03:50:33.201Z,1.81
2019-02-25T03:53:02.654Z,1.82
2019-02-25T03:55:32.204Z,1.80
2019-02-25T03:58:01.704Z,1.66
2019-02-25T04:00:31.258Z,1.66
2019-02-25T04:03:00.854Z,1.56
2019-02-25T04:05:30.329Z,1.77
2019-02-25T04:07:59.813Z,1.84
2019-02-25T04:10:29.407Z,1.88
2019-02-25T04:12:58.855Z,1.82
2019-02-25T04:15:33.564Z,1.90
2019-02-25T04:18:03.134Z,1.88
2019-02-25T04:20:32.719Z,1.81
2019-02-25T04:23:02.179Z,1.79
2019-02-25T04:25:31.641Z,1.85
2019-02-25T04:28:01.251Z,1.72
2019-02-25T04:30:30.720Z,1.76
2019-02-25T04:33:00.232Z,1.82
2019-02-25T04:35:29.695Z,1.76
2019-02-25T04:37:59.198Z,1.73
2019-02-25T04:40:28.675Z,1.72
2019-02-25T04:42:58.122Z,1.77
2019-02-25T04:45:27.606Z,1.75
2019-02-25T04:47:57.069Z,1.66
2019-02-25T04:50:26.686Z,1.80
2019-02-25T04:52:56.138Z,1.80
2019-02-25T04:55:26.324Z,1.80
2019-02-25T04:57:55.855Z,1.75
2019-02-25T05:00:25.336Z,1.61
2019-02-25T05:02:54.820Z,1.61
2019-02-25T05:05:24.281Z,1.51
2019-02-25T05:07:53.807Z,1.34
2019-02-25T05:10:23.534Z,1.08
2019-02-25T05:12:58.318Z,1.26
2019-02-25T05:15:28.071Z,1.45
2019-02-25T05:17:57.567Z,1.59
2019-02-25T05:20:27.086Z,1.72
2019-02-25T05:22:56.702Z,1.67
2019-02-25T05:25:26.526Z,1.58
2019-02-25T05:27:55.983Z,1.53
2019-02-25T05:30:25.460Z,1.41
2019-02-25T05:32:54.951Z,1.44
2019-02-25T05:35:24.517Z,1.56
2019-02-25T05:37:54.028Z,1.48
2019-02-25T05:40:23.545Z,1.54
2019-02-25T05:42:53.046Z,1.46
2019-02-25T05:45:22.587Z,1.48
2019-02-25T05:47:52.058Z,1.39
2019-02-25T05:50:21.728Z,1.44
2019-02-25T05:52:51.278Z,1.16
2019-02-25T05:55:20.770Z,1.14
2019-02-25T05:57:50.363Z,1.21
2019-02-25T06:00:22.317Z,1.07
2019-02-25T06:02:51.774Z,1.02
2019-02-25T06:05:21.259Z,1.08
2019-02-25T06:07:50.855Z,1.05
2019-02-25T06:10:20.360Z,1.16
2019-02-25T06:12:50.095Z,1.11
2019-02-25T06:15:19.565Z,1.16
2019-02-25T06:17:49.055Z,1.31
2019-02-25T06:20:18.580Z,1.39
2019-02-25T06:22:48.085Z,1.35
2019-02-25T06:25:17.725Z,1.46
2019-02-25T06:27:47.237Z,1.51
2019-02-25T06:30:17.873Z,1.47
2019-02-25T06:32:47.328Z,1.49
2019-02-25T06:35:16.852Z,1.55
2019-02-25T06:37:46.495Z,1.57
2019-02-25T06:40:16.402Z,1.32
2019-02-25T06:42:45.917Z,1.22
2019-02-25T06:45:17.074Z,1.30
2019-02-25T06:47:46.803Z,1.32
2019-02-25T06:50:16.474Z,1.47
2019-02-25T06:52:45.962Z,1.29
2019-02-25T06:55:15.942Z,1.51
2019-02-25T06:57:45.414Z,1.63
2019-02-25T07:00:17.198Z,1.67
2019-02-25T07:02:46.861Z,1.59
2019-02-25T07:05:28.213Z,1.59
2019-02-25T07:08:10.707Z,1.58
2019-02-25T07:10:53.865Z,1.66
2019-02-25T07:13:57.437Z,1.84
2019-02-25T07:17:04.211Z,1.98
2019-02-25T07:20:01.715Z,1.74
2019-02-25T07:22:48.824Z,1.68
2019-02-25T07:25:52.561Z,1.75
2019-02-25T07:28:46.209Z,1.99
2019-02-25T07:31:35.292Z,2.04
2019-02-25T07:34:23.750Z,2.26
2019-02-25T07:36:59.857Z,2.41
2019-02-25T07:39:57.641Z,2.56
2019-02-25T07:42:40.403Z,2.55
2019-02-25T07:45:30.474Z,2.70
2019-02-25T07:48:05.610Z,2.87
2019-02-25T07:50:57.047Z,2.88
2019-02-25T07:53:51.018Z,2.98
2019-02-25T07:56:54.866Z,3.17
2019-02-25T07:59:32.843Z,3.13
2019-02-25T08:02:21.206Z,3.22
2019-02-25T08:05:07.384Z,3.34
2019-02-25T08:07:55.770Z,3.44
2019-02-25T08:10:48.376Z,3.60
2019-02-25T08:13:26.970Z,3.43
2019-02-25T08:16:12.269Z,3.42
2019-02-25T08:19:03.614Z,3.37
2019-02-25T08:21:50.712Z,3.47
2019-02-25T08:24:34.634Z,3.63
2019-02-25T08:27:16.032Z,3.52
2019-02-25T08:29:53.570Z,3.85
2019-02-25T08:32:30.207Z,4.00
2019-02-25T08:35:27.725Z,3.69
2019-02-25T08:38:11.406Z,4.08
2019-02-25T08:41:19.939Z,4.28
2019-02-25T08:44:23.807Z,4.33
2019-02-25T08:46:58.642Z,4.43
2019-02-25T08:49:53.219Z,4.54
2019-02-25T08:52:22.687Z,4.54
2019-02-25T08:54:52.137Z,4.67
2019-02-25T08:57:21.566Z,4.67
2019-02-25T08:59:51.074Z,4.82
2019-02-25T09:02:20.473Z,4.97
2019-02-25T09:04:49.863Z,5.06
2019-02-25T09:07:19.294Z,5.24
2019-02-25T09:09:48.655Z,5.34
2019-02-25T09:12:18.122Z,5.35
2019-02-25T09:14:47.526Z,5.46
2019-02-25T09:17:16.955Z,5.67
2019-02-25T09:19:46.347Z,5.82
2019-02-25T09:22:15.724Z,5.98
2019-02-25T09:24:45.124Z,6.22
2019-02-25T09:27:14.545Z,6.33
2019-02-25T09:29:44.967Z,6.46
2019-02-25T09:32:14.455Z,6.44
2019-02-25T09:34:44.205Z,6.62
2019-02-25T09:37:13.585Z,6.66
2019-02-25T09:39:42.994Z,6.76
2019-02-25T09:42:12.445Z,6.64
2019-02-25T09:44:41.815Z,6.30
2019-02-25T09:47:11.308Z,6.72
2019-02-25T09:49:40.704Z,7.03
2019-02-25T09:52:10.140Z,7.10
2019-02-25T09:54:39.553Z,7.08
2019-02-25T09:57:09.304Z,6.80
2019-02-25T09:59:38.734Z,6.84
2019-02-25T10:02:08.057Z,7.14
2019-02-25T10:04:37.451Z,7.73
2019-02-25T10:07:06.945Z,8.08
2019-02-25T10:09:36.337Z,8.13
2019-02-25T10:12:05.722Z,8.00
2019-02-25T10:14:35.141Z,8.58
2019-02-25T10:17:04.517Z,8.58
2019-02-25T10:19:34.879Z,8.72
2019-02-25T10:22:04.306Z,8.90
2019-02-25T10:24:33.680Z,8.90
2019-02-25T10:27:03.119Z,9.15
2019-02-25T10:29:32.541Z,9.14
2019-02-25T10:32:03.864Z,9.34
2019-02-25T10:34:33.114Z,9.34
2019-02-25T10:37:02.490Z,9.63
2019-02-25T10:39:31.865Z,9.79
2019-02-25T10:42:01.762Z,9.94
2019-02-25T10:44:31.897Z,10.11
2019-02-25T10:47:02.500Z,10.30
2019-02-25T10:49:33.679Z,10.19
2019-02-25T10:52:03.235Z,10.25
2019-02-25T10:54:32.646Z,10.03
2019-02-25T10:57:08.340Z,10.24
2019-02-25T10:59:39.521Z,10.43
2019-02-25T11:02:11.051Z,10.37
2019-02-25T11:04:40.207Z,10.42
2019-02-25T11:07:09.792Z,10.49
2019-02-25T11:10:01.803Z,10.32
2019-02-25T11:12:32.154Z,10.54
2019-02-25T11:15:01.653Z,10.92
2019-02-25T11:17:31.049Z,10.76
2019-02-25T11:20:03.059Z,10.91
2019-02-25T11:22:31.633Z,11.10
2019-02-25T11:25:01.171Z,11.31
2019-02-25T11:27:33.064Z,11.43
2019-02-25T11:30:01.977Z,11.58
2019-02-25T11:32:32.302Z,11.54
2019-02-25T11:35:03.966Z,11.38
2019-02-25T11:37:32.836Z,11.77
2019-02-25T11:40:04.268Z,11.97
2019-02-25T11:42:33.545Z,12.14
2019-02-25T11:45:04.497Z,11.90
2019-02-25T11:47:34.173Z,12.42
2019-02-25T11:50:04.225Z,12.66
2019-02-25T11:52:33.599Z,12.63
2019-02-25T11:55:03.029Z,12.70
2019-02-25T11:57:32.509Z,12.88
2019-02-25T12:00:02.027Z,13.32
2019-02-25T12:02:31.437Z,13.42
2019-02-25T12:05:00.884Z,13.72
2019-02-25T12:07:30.308Z,14.05
2019-02-25T12:09:59.782Z,14.18
2019-02-25T12:12:29.225Z,14.55
2019-02-25T12:14:58.636Z,14.96
2019-02-25T12:17:28.030Z,15.39
2019-02-25T12:19:57.616Z,15.67
2019-02-25T12:22:26.984Z,15.64
2019-02-25T12:24:56.405Z,16.21
2019-02-25T12:27:25.796Z,16.75
2019-02-25T12:29:55.264Z,15.76
2019-02-25T12:32:24.728Z,16.59
2019-02-25T12:34:54.566Z,17.42
2019-02-25T12:37:23.973Z,17.60
2019-02-25T12:39:53.393Z,18.40
2019-02-25T12:42:22.852Z,18.92
2019-02-25T12:44:52.339Z,18.98
2019-02-25T12:47:21.771Z,19.52
2019-02-25T12:49:51.156Z,20.16
2019-02-25T12:52:20.566Z,20.28
2019-02-25T12:54:50.195Z,21.44
2019-02-25T12:57:20.220Z,22.62
2019-02-25T12:59:52.363Z,22.70
2019-02-25T13:02:22.690Z,22.46
2019-02-25T13:04:52.066Z,22.85
2019-02-25T13:07:21.454Z,22.43
2019-02-25T13:09:50.899Z,22.12
2019-02-25T13:12:20.340Z,22.15
2019-02-25T13:14:49.792Z,20.57
2019-02-25T13:17:19.221Z,21.86
2019-02-25T13:19:48.694Z,22.25
2019-02-25T13:22:18.158Z,19.61
2019-02-25T13:24:47.630Z,21.75
2019-02-25T13:27:17.044Z,22.13
2019-02-25T13:29:46.691Z,22.71
2019-02-25T13:32:16.074Z,22.62
2019-02-25T13:34:45.751Z,20.14
2019-02-25T13:37:15.106Z,22.60
2019-02-25T13:39:44.547Z,23.08
2019-02-25T13:42:13.957Z,22.90
2019-02-25T13:44:43.379Z,23.54
2019-02-25T13:47:12.795Z,23.21
2019-02-25T13:49:42.152Z,21.65
2019-02-25T13:52:11.825Z,21.41
2019-02-25T13:54:41.296Z,21.14
2019-02-25T13:57:10.745Z,22.89
2019-02-25T13:59:40.132Z,23.67
2019-02-25T14:02:09.588Z,24.64
2019-02-25T14:04:38.982Z,24.67
2019-02-25T14:07:08.486Z,24.25
2019-02-25T14:09:38.046Z,24.94
2019-02-25T14:12:07.810Z,23.33
2019-02-25T14:14:37.229Z,25.99
2019-02-25T14:17:06.634Z,26.17
2019-02-25T14:19:36.347Z,26.08
2019-02-25T14:22:05.990Z,27.10
2019-02-25T14:24:35.358Z,28.70
2019-02-25T14:27:04.910Z,27.51
2019-02-25T14:29:34.450Z,26.29
2019-02-25T14:32:03.864Z,25.32
2019-02-25T14:34:33.428Z,23.65
2019-02-25T14:37:04.750Z,22.30
2019-02-25T14:39:35.995Z,21.92
2019-02-25T14:42:06.818Z,20.38
2019-02-25T14:44:38.162Z,20.04
2019-02-25T14:47:19.579Z,19.48
2019-02-25T14:49:40.414Z,18.79
2019-02-25T14:52:10.589Z,18.05
2019-02-25T14:54:39.960Z,18.04
2019-02-25T14:57:09.345Z,17.53
2019-02-25T14:59:40.671Z,17.45
2019-02-25T15:02:11.119Z,17.41
2019-02-25T15:04:41.779Z,16.85
2019-02-25T15:07:13.503Z,16.78
2019-02-25T15:09:43.607Z,16.67
2019-02-25T15:12:14.275Z,16.67
2019-02-25T15:14:43.747Z,16.77
2019-02-25T15:17:14.854Z,16.62
2019-02-25T15:19:44.303Z,16.29
2019-02-25T15:22:14.158Z,16.29
2019-02-25T15:24:44.429Z,16.23
2019-02-25T15:27:14.733Z,16.29
2019-02-25T15:29:45.136Z,16.20
2019-02-25T15:32:16.129Z,16.07
2019-02-25T15:34:46.485Z,15.95
2019-02-25T15:37:16.908Z,16.05
2019-02-25T15:39:46.285Z,15.92
2019-02-25T15:42:17.051Z,15.77
2019-02-25T15:44:47.203Z,15.74
2019-02-25T15:47:17.833Z,15.60
2019-02-25T15:49:48.138Z,15.51
2019-02-25T15:52:18.722Z,15.43
2019-02-25T15:54:48.795Z,15.49
2019-02-25T15:57:18.218Z,15.26
2019-02-25T15:59:47.582Z,15.34
2019-02-25T16:02:17.120Z,15.09
2019-02-25T16:04:46.608Z,14.92
2019-02-25T16:07:16.026Z,14.82
2019-02-25T16:09:45.838Z,14.91
2019-02-25T16:12:15.274Z,14.88
2019-02-25T16:14:46.702Z,14.85
2019-02-25T16:17:16.723Z,14.68
2019-02-25T16:19:48.138Z,14.53
2019-02-25T16:22:17.211Z,14.35
2019-02-25T16:24:46.609Z,14.44
2019-02-25T16:27:16.877Z,14.33
2019-02-25T16:29:47.412Z,14.32
2019-02-25T16:32:17.075Z,14.31
2019-02-25T16:34:47.392Z,14.35
2019-02-25T16:37:17.674Z,14.26
2019-02-25T16:39:55.589Z,14.39
2019-02-25T16:42:26.261Z,14.30
2019-02-25T16:44:57.489Z,14.25
2019-02-25T16:47:32.845Z,14.24
2019-02-25T16:50:00.773Z,13.95
2019-02-25T16:52:30.923Z,14.07
2019-02-25T16:55:00.383Z,14.12
2019-02-25T16:57:29.975Z,14.00
2019-02-25T17:00:02.249Z,13.97
2019-02-25T17:02:33.752Z,13.98
2019-02-25T17:05:02.306Z,13.88
2019-02-25T17:07:31.927Z,13.89
2019-02-25T17:10:03.195Z,13.74
2019-02-25T17:12:32.506Z,13.56
2019-02-25T17:15:02.022Z,13.62
2019-02-25T17:17:31.466Z,13.59
2019-02-25T17:20:00.915Z,13.54
2019-02-25T17:22:30.437Z,13.49
2019-02-25T17:25:00.385Z,13.45
2019-02-25T17:27:31.097Z,13.41
2019-02-25T17:30:00.475Z,13.29
2019-02-25T17:32:29.962Z,13.28
2019-02-25T17:35:00.305Z,13.16
2019-02-25T17:37:31.560Z,12.93
2019-02-25T17:40:05.769Z,12.76
2019-02-25T17:42:33.549Z,12.70
2019-02-25T17:45:05.026Z,12.62
2019-02-25T17:47:35.137Z,12.57
2019-02-25T17:50:08.664Z,12.54
2019-02-25T17:52:39.943Z,12.52
2019-02-25T17:55:12.847Z,12.42
2019-02-25T17:57:42.313Z,12.32
2019-02-25T18:00:17.265Z,12.23
2019-02-25T18:02:46.872Z,12.06
2019-02-25T18:05:18.558Z,11.88
2019-02-25T18:07:48.652Z,11.73
2019-02-25T18:10:18.217Z,11.67
2019-02-25T18:12:47.672Z,11.54
2019-02-25T18:15:22.000Z,11.45
2019-02-25T18:17:53.550Z,11.35
2019-02-25T18:20:23.705Z,11.26
2019-02-25T18:22:53.139Z,11.11
2019-02-25T18:25:22.509Z,10.99
2019-02-25T18:27:52.288Z,10.93
2019-02-25T18:30:23.946Z,10.81
2019-02-25T18:32:55.189Z,10.67
2019-02-25T18:35:24.793Z,10.59
2019-02-25T18:37:54.833Z,10.59
2019-02-25T18:40:24.564Z,10.50
2019-02-25T18:42:53.961Z,10.50
2019-02-25T18:45:25.396Z,10.30
2019-02-25T18:47:54.602Z,10.20
2019-02-25T18:50:26.347Z,10.16
2019-02-25T18:52:57.189Z,9.95
2019-02-25T18:55:27.626Z,9.99
2019-02-25T18:57:58.334Z,9.98
2019-02-25T19:00:40.113Z,9.92
2019-02-25T19:03:10.335Z,9.91
2019-02-25T19:05:39.788Z,9.82
2019-02-25T19:08:15.073Z,9.82
2019-02-25T19:10:47.629Z,9.75
2019-02-25T19:13:20.198Z,9.63
2019-02-25T19:15:48.782Z,9.52
2019-02-25T19:18:19.114Z,9.49
2019-02-25T19:20:48.871Z,9.38
2019-02-25T19:23:18.483Z,9.19
2019-02-25T19:25:47.874Z,9.19
2019-02-25T19:28:19.702Z,9.17
2019-02-25T19:30:50.689Z,9.13
2019-02-25T19:33:20.657Z,9.02
2019-02-25T19:35:50.256Z,8.89
2019-02-25T19:38:21.380Z,8.79
2019-02-25T19:40:53.057Z,8.79
2019-02-25T19:43:22.344Z,8.84
2019-02-25T19:45:51.736Z,8.89
2019-02-25T19:48:22.688Z,8.89
2019-02-25T19:50:54.049Z,8.84
2019-02-25T19:53:23.865Z,8.64
2019-02-25T19:55:53.841Z,8.64
2019-02-25T19:58:24.209Z,8.48
2019-02-25T20:00:59.040Z,8.38
2019-02-25T20:03:26.047Z,8.42
2019-02-25T20:05:56.404Z,8.49
2019-02-25T20:08:25.989Z,8.45
2019-02-25T20:10:55.367Z,8.40
2019-02-25T20:13:24.774Z,8.40
2019-02-25T20:15:55.750Z,8.32
2019-02-25T20:18:25.233Z,8.18
2019-02-25T20:20:55.447Z,8.22
2019-02-25T20:23:26.745Z,8.13
2019-02-25T20:25:57.816Z,7.98
2019-02-25T20:28:27.296Z,7.98
2019-02-25T20:30:56.940Z,7.90
2019-02-25T20:33:30.475Z,7.91
2019-02-25T20:35:58.925Z,7.68
2019-02-25T20:38:29.618Z,7.68
2019-02-25T20:41:02.279Z,7.60
2019-02-25T20:43:32.501Z,7.47
2019-02-25T20:46:03.995Z,7.47
2019-02-25T20:48:33.117Z,7.58
2019-02-25T20:51:04.238Z,7.45
2019-02-25T20:53:34.030Z,7.48
2019-02-25T20:56:03.633Z,7.40
2019-02-25T20:58:33.030Z,7.49
2019-02-25T21:01:05.288Z,7.52
2019-02-25T21:03:33.548Z,7.52
2019-02-25T21:06:03.232Z,7.48
2019-02-25T21:08:32.602Z,7.48
2019-02-25T21:11:06.980Z,7.39
2019-02-25T21:13:33.616Z,7.32
2019-02-25T21:16:04.828Z,7.22
2019-02-25T21:18:35.538Z,7.18
2019-02-25T21:21:07.116Z,7.11
2019-02-25T21:23:36.226Z,6.93
2019-02-25T21:26:07.426Z,6.95
2019-02-25T21:28:38.144Z,7.01
2019-02-25T21:31:13.590Z,7.00
2019-02-25T21:33:39.176Z,6.95
2019-02-25T21:36:08.608Z,6.88
2019-02-25T21:38:37.978Z,6.76
2019-02-25T21:41:08.979Z,6.55
2019-02-25T21:43:38.519Z,6.60
2019-02-25T21:46:07.910Z,6.52
2019-02-25T21:48:37.396Z,6.43
2019-02-25T21:51:08.023Z,6.41
2019-02-25T21:53:38.170Z,6.29
2019-02-25T21:56:07.544Z,6.29
2019-02-25T21:58:36.972Z,6.18
2019-02-25T22:01:06.378Z,6.21
2019-02-25T22:03:39.484Z,6.18
2019-02-25T22:06:06.908Z,6.07
2019-02-25T22:08:36.348Z,6.07
2019-02-25T22:11:12.332Z,6.05
2019-02-25T22:13:36.898Z,6.07
2019-02-25T22:16:07.992Z,6.06
2019-02-25T22:18:37.479Z,6.07
2019-02-25T22:21:09.259Z,6.11
2019-02-25T22:23:38.023Z,6.03
2019-02-25T22:26:07.427Z,5.87
2019-02-25T22:28:37.599Z,5.83
2019-02-25T22:31:10.346Z,5.73
2019-02-25T22:33:39.379Z,5.77
2019-02-25T22:36:08.779Z,5.72
2019-02-25T22:38:38.150Z,5.75
2019-02-25T22:41:07.587Z,5.72
2019-02-25T22:43:39.046Z,5.38
2019-02-25T22:46:11.186Z,5.54
2019-02-25T22:48:42.018Z,5.68
2019-02-25T22:51:10.450Z,5.71
2019-02-25T22:53:39.869Z,5.73
2019-02-25T22:56:13.298Z,5.71
2019-02-25T22:58:42.773Z,5.75
2019-02-25T23:01:18.066Z,5.60
2019-02-25T23:03:47.898Z,5.57
2019-02-25T23:06:19.149Z,5.44
2019-02-25T23:08:51.047Z,5.38
2019-02-25T23:11:22.050Z,5.36
2019-02-25T23:13:52.518Z,5.14
2019-02-25T23:16:25.415Z,5.28
2019-02-25T23:18:54.026Z,5.21
2019-02-25T23:21:26.339Z,5.13
2019-02-25T23:23:55.901Z,5.12
2019-02-25T23:26:25.733Z,5.12
2019-02-25T23:28:55.991Z,5.12
2019-02-25T23:31:29.632Z,5.11
2019-02-25T23:33:57.300Z,5.03
2019-02-25T23:36:26.704Z,4.80
2019-02-25T23:38:57.130Z,4.76
2019-02-25T23:41:29.405Z,4.64
2019-02-25T23:43:58.336Z,4.70
2019-02-25T23:46:29.801Z,4.77
2019-02-25T23:48:58.835Z,4.82
2019-02-25T23:51:28.250Z,4.74
2019-02-25T23:53:57.751Z,4.77
2019-02-25T23:56:27.956Z,4.80
2019-02-25T23:58:58.331Z,4.81
